createdAt,value
2019-04-21T00:00:45.702Z,100777.36
2019-04-21T00:03:18.170Z,100769.20
2019-04-21T00:05:58.857Z,100767.12
2019-04-21T00:08:33.698Z,100772.11
2019-04-21T00:11:01.345Z,100768.56
2019-04-21T00:13:21.119Z,100768.82
2019-04-21T00:15:42.297Z,100768.56
2019-04-21T00:18:07.580Z,100761.72
2019-04-21T00:20:41.270Z,100758.63
2019-04-21T00:23:26.234Z,100758.45
2019-04-21T00:25:46.145Z,100757.98
2019-04-21T00:28:27.252Z,100757.78
2019-04-21T00:30:53.123Z,100753.59
2019-04-21T00:33:06.753Z,100747.67
2019-04-21T00:35:27.998Z,100750.96
2019-04-21T00:38:15.438Z,100749.56
2019-04-21T00:40:42.735Z,100746.56
2019-04-21T00:43:13.597Z,100748.52
2019-04-21T00:45:31.084Z,100748.14
2019-04-21T00:48:14.658Z,100743.65
2019-04-21T00:50:51.739Z,100746.09
2019-04-21T00:53:27.294Z,100748.63
2019-04-21T00:55:51.395Z,100749.84
2019-04-21T00:58:24.142Z,100746.18
2019-04-21T01:00:46.201Z,100744.30
2019-04-21T01:03:14.581Z,100743.20
2019-04-21T01:05:47.221Z,100742.05
2019-04-21T01:08:11.471Z,100732.13
2019-04-21T01:10:32.718Z,100747.28
2019-04-21T01:13:14.360Z,100742.14
2019-04-21T01:18:06.377Z,100743.16
2019-04-21T01:20:17.309Z,100745.87
2019-04-21T01:22:40.724Z,100745.69
2019-04-21T01:25:15.929Z,100742.16
2019-04-21T01:27:54.150Z,100748.87
2019-04-21T01:30:29.703Z,100747.55
2019-04-21T01:33:02.536Z,100743.54
2019-04-21T01:35:25.701Z,100752.88
2019-04-21T01:37:56.006Z,100752.31
2019-04-21T01:40:32.058Z,100752.77
2019-04-21T01:42:56.785Z,100747.52
2019-04-21T01:45:26.590Z,100745.64
2019-04-21T01:47:51.716Z,100743.30
2019-04-21T01:50:27.452Z,100744.97
2019-04-21T01:53:15.592Z,100735.70
2019-04-21T01:55:49.256Z,100736.80
2019-04-21T01:58:18.269Z,100733.90
2019-04-21T02:00:51.850Z,100729.03
2019-04-21T02:05:58.645Z,100722.77
2019-04-21T02:08:24.282Z,100713.88
2019-04-21T02:10:56.041Z,100716.81
2019-04-21T02:13:17.578Z,100716.62
2019-04-21T02:15:48.789Z,100718.20
2019-04-21T02:18:18.833Z,100712.97
2019-04-21T02:20:36.898Z,100717.81
2019-04-21T02:23:34.664Z,100711.46
2019-04-21T02:25:47.671Z,100713.88
2019-04-21T02:28:17.993Z,100704.23
2019-04-21T02:30:55.097Z,100710.62
2019-04-21T02:33:26.121Z,100716.39
2019-04-21T02:36:20.819Z,100713.50
2019-04-21T02:38:16.515Z,100713.73
2019-04-21T02:40:46.418Z,100709.77
2019-04-21T02:50:38.955Z,100705.11
2019-04-21T02:53:14.020Z,100702.96
2019-04-21T02:55:38.896Z,100691.69
2019-04-21T02:58:17.857Z,100695.68
2019-04-21T03:01:05.146Z,100687.87
2019-04-21T03:03:40.078Z,100694.59
2019-04-21T03:06:24.975Z,100684.08
2019-04-21T03:08:43.019Z,100676.44
2019-04-21T03:11:11.937Z,100675.39
2019-04-21T03:13:40.982Z,100681.28
2019-04-21T03:16:11.812Z,100673.91
2019-04-21T03:18:32.758Z,100675.34
2019-04-21T03:23:29.822Z,100673.38
2019-04-21T03:25:52.181Z,100666.02
2019-04-21T03:28:22.611Z,100662.43
2019-04-21T03:34:02.764Z,100662.30
2019-04-21T03:36:19.206Z,100672.22
2019-04-21T03:38:18.911Z,100667.05
2019-04-21T03:40:40.427Z,100668.58
2019-04-21T03:43:12.727Z,100659.77
2019-04-21T03:45:42.288Z,100654.26
2019-04-21T03:48:11.513Z,100650.49
2019-04-21T03:50:35.451Z,100654.73
2019-04-21T04:00:54.139Z,100663.81
2019-04-21T04:03:47.523Z,100661.38
2019-04-21T04:06:03.126Z,100662.04
2019-04-21T04:11:21.137Z,100672.69
2019-04-21T04:13:47.691Z,100680.05
2019-04-21T04:16:06.914Z,100677.26
2019-04-21T04:21:12.379Z,100670.97
2019-04-21T04:26:02.442Z,100664.05
2019-04-21T04:28:28.226Z,100664.89
2019-04-21T04:36:03.816Z,100668.12
2019-04-21T04:41:05.883Z,100668.22
2019-04-21T04:45:59.140Z,100672.45
2019-04-21T04:48:28.068Z,100682.59
2019-04-21T04:53:38.849Z,100670.00
2019-04-21T04:56:00.941Z,100679.00
2019-04-21T04:58:38.915Z,100680.73
2019-04-21T05:01:06.194Z,100674.77
2019-04-21T05:03:26.315Z,100673.18
2019-04-21T05:09:03.391Z,100676.12
2019-04-21T05:11:37.745Z,100676.09
2019-04-21T05:13:55.030Z,100675.20
2019-04-21T05:16:27.263Z,100672.79
2019-04-21T05:18:52.860Z,100672.30
2019-04-21T05:21:23.828Z,100668.01
2019-04-21T05:23:31.350Z,100665.95
2019-04-21T05:25:54.304Z,100665.80
2019-04-21T05:28:23.431Z,100668.02
2019-04-21T05:31:18.417Z,100670.63
2019-04-21T05:33:57.800Z,100667.75
2019-04-21T05:36:37.977Z,100665.38
2019-04-21T05:39:14.833Z,100663.95
2019-04-21T05:41:40.508Z,100665.15
2019-04-21T05:44:21.045Z,100663.41
2019-04-21T05:46:53.481Z,100663.15
2019-04-21T05:49:15.383Z,100660.47
2019-04-21T05:51:56.584Z,100663.05
2019-04-21T05:54:39.578Z,100658.71
2019-04-21T05:56:59.905Z,100663.80
2019-04-21T05:59:26.466Z,100665.88
2019-04-21T06:02:08.767Z,100669.20
2019-04-21T06:04:38.509Z,100676.59
2019-04-21T06:07:04.790Z,100674.64
2019-04-21T06:09:32.511Z,100673.82
2019-04-21T06:11:59.747Z,100677.94
2019-04-21T06:14:30.502Z,100678.19
2019-04-21T06:17:01.505Z,100679.84
2019-04-21T06:19:35.241Z,100676.70
2019-04-21T06:21:51.119Z,100673.25
2019-04-21T06:24:26.986Z,100668.51
2019-04-21T06:26:59.245Z,100664.28
2019-04-21T06:29:14.968Z,100665.34
2019-04-21T06:34:16.577Z,100664.64
2019-04-21T06:37:07.850Z,100662.92
2019-04-21T06:39:31.650Z,100668.27
2019-04-21T06:41:58.814Z,100662.03
2019-04-21T06:44:48.227Z,100661.27
2019-04-21T06:46:54.828Z,100665.53
2019-04-21T06:49:19.467Z,100657.44
2019-04-21T06:51:58.209Z,100661.50
2019-04-21T06:54:22.021Z,100664.78
2019-04-21T06:56:54.311Z,100661.55
2019-04-21T06:59:17.457Z,100650.53
2019-04-21T07:02:18.355Z,100655.85
2019-04-21T07:09:31.321Z,100659.97
2019-04-21T07:11:37.423Z,100658.44
2019-04-21T07:16:41.516Z,100651.45
2019-04-21T07:19:14.601Z,100653.29
2019-04-21T07:21:34.475Z,100652.34
2019-04-21T07:24:05.259Z,100645.18
2019-04-21T07:26:32.960Z,100634.16
2019-04-21T07:29:02.889Z,100633.09
2019-04-21T07:31:36.472Z,100629.30
2019-04-21T07:33:58.693Z,100627.31
2019-04-21T07:36:30.574Z,100626.99
2019-04-21T07:38:49.756Z,100621.14
2019-04-21T07:41:13.749Z,100622.47
2019-04-21T07:43:44.041Z,100627.37
2019-04-21T07:46:17.268Z,100622.50
2019-04-21T07:48:49.802Z,100621.34
2019-04-21T07:51:32.136Z,100625.27
2019-04-21T07:54:02.260Z,100625.27
2019-04-21T07:56:09.442Z,100624.32
2019-04-21T07:58:59.099Z,100622.16
2019-04-21T08:01:25.763Z,100619.39
2019-04-21T08:03:52.337Z,100613.30
2019-04-21T08:06:25.355Z,100612.36
2019-04-21T08:08:51.002Z,100609.36
2019-04-21T08:11:16.686Z,100609.70
2019-04-21T08:13:57.707Z,100613.03
2019-04-21T08:16:20.063Z,100606.14
2019-04-21T08:18:39.711Z,100608.67
2019-04-21T08:21:11.208Z,100606.55
2019-04-21T08:23:39.926Z,100605.43
2019-04-21T08:28:39.823Z,100601.66
2019-04-21T08:31:08.402Z,100598.53
2019-04-21T08:33:41.496Z,100599.80
2019-04-21T08:38:31.362Z,100591.61
2019-04-21T08:41:01.977Z,100593.13
2019-04-21T08:43:38.095Z,100596.86
2019-04-21T08:45:55.295Z,100591.62
2019-04-21T08:48:22.415Z,100595.16
2019-04-21T08:50:55.035Z,100586.52
2019-04-21T08:53:21.165Z,100583.66
2019-04-21T08:55:58.511Z,100580.96
2019-04-21T08:58:31.036Z,100582.36
2019-04-21T09:01:08.835Z,100576.30
2019-04-21T09:03:55.629Z,100571.44
2019-04-21T09:06:40.331Z,100573.50
2019-04-21T09:08:53.570Z,100572.09
2019-04-21T09:11:16.181Z,100569.13
2019-04-21T09:13:48.827Z,100562.80
2019-04-21T09:16:12.175Z,100568.30
2019-04-21T09:18:38.372Z,100552.30
2019-04-21T09:21:13.583Z,100545.43
2019-04-21T09:23:42.024Z,100544.88
2019-04-21T09:26:06.021Z,100538.52
2019-04-21T09:28:32.689Z,100538.25
2019-04-21T09:30:52.500Z,100542.77
2019-04-21T09:33:14.399Z,100535.89
2019-04-21T09:35:50.088Z,100542.47
2019-04-21T09:38:19.654Z,100533.97
2019-04-21T09:40:45.512Z,100537.11
2019-04-21T09:43:11.370Z,100530.77
2019-04-21T09:45:37.628Z,100531.79
2019-04-21T09:48:09.932Z,100527.94
2019-04-21T09:50:35.025Z,100529.95
2019-04-21T09:53:12.929Z,100527.31
2019-04-21T09:55:36.448Z,100519.30
2019-04-21T09:58:12.713Z,100507.44
2019-04-21T10:00:30.373Z,100512.30
2019-04-21T10:03:02.883Z,100512.41
2019-04-21T10:05:25.134Z,100507.45
2019-04-21T10:07:53.033Z,100492.09
2019-04-21T10:10:20.054Z,100490.55
2019-04-21T10:12:47.681Z,100490.31
2019-04-21T10:15:14.367Z,100483.12
2019-04-21T10:17:49.615Z,100482.06
2019-04-21T10:20:17.231Z,100476.07
2019-04-21T10:22:44.761Z,100472.64
2019-04-21T10:25:12.637Z,100466.89
2019-04-21T10:27:39.346Z,100463.44
2019-04-21T10:30:07.991Z,100466.71
2019-04-21T10:32:34.497Z,100460.50
2019-04-21T10:35:01.171Z,100452.12
2019-04-21T10:37:37.531Z,100448.06
2019-04-21T10:39:56.088Z,100452.53
2019-04-21T10:42:23.680Z,100450.03
2019-04-21T10:44:52.687Z,100447.48
2019-04-21T10:47:20.659Z,100440.76
2019-04-21T10:49:48.571Z,100443.47
2019-04-21T10:52:28.918Z,100435.00
2019-04-21T10:55:11.317Z,100439.55
2019-04-21T10:57:28.498Z,100432.20
2019-04-21T10:59:56.487Z,100432.78
2019-04-21T11:02:25.071Z,100423.29
2019-04-21T11:04:54.258Z,100419.61
2019-04-21T11:07:52.884Z,100418.83
2019-04-21T11:10:09.881Z,100415.28
2019-04-21T11:12:39.325Z,100416.55
2019-04-21T11:15:05.552Z,100409.04
2019-04-21T11:17:32.339Z,100408.59
2019-04-21T11:19:59.141Z,100402.13
2019-04-21T11:22:26.148Z,100397.63
2019-04-21T11:24:53.298Z,100393.54
2019-04-21T11:27:19.809Z,100398.23
2019-04-21T11:29:47.361Z,100387.70
2019-04-21T11:32:14.761Z,100380.91
2019-04-21T11:34:41.149Z,100390.65
2019-04-21T11:37:10.181Z,100383.09
2019-04-21T11:39:46.012Z,100381.08
2019-04-21T11:42:07.909Z,100370.47
2019-04-21T11:44:35.328Z,100375.38
2019-04-21T11:47:04.576Z,100374.24
2019-04-21T11:49:32.556Z,100372.53
2019-04-21T11:51:59.189Z,100373.53
2019-04-21T11:54:26.790Z,100373.73
2019-04-21T11:56:54.810Z,100369.50
2019-04-21T11:59:21.789Z,100371.55
2019-04-21T12:01:49.686Z,100370.85
2019-04-21T12:04:16.265Z,100373.52
2019-04-21T12:06:46.695Z,100364.07
2019-04-21T12:09:11.827Z,100367.48
2019-04-21T12:11:39.033Z,100371.17
2019-04-21T12:14:05.951Z,100365.67
2019-04-21T12:16:33.149Z,100364.46
2019-04-21T12:19:00.954Z,100360.86
2019-04-21T12:21:31.999Z,100362.90
2019-04-21T12:23:56.610Z,100363.63
2019-04-21T12:26:24.194Z,100354.89
2019-04-21T12:28:51.938Z,100363.69
2019-04-21T12:31:25.451Z,100351.50
2019-04-21T12:33:56.497Z,100350.33
2019-04-21T12:36:24.146Z,100341.75
2019-04-21T12:38:55.829Z,100343.36
2019-04-21T12:41:20.379Z,100329.41
2019-04-21T12:43:48.587Z,100329.09
2019-04-21T12:46:15.935Z,100332.92
2019-04-21T12:48:44.105Z,100332.66
2019-04-21T12:51:12.155Z,100320.30
2019-04-21T12:53:39.564Z,100322.16
2019-04-21T12:56:07.579Z,100311.75
2019-04-21T12:58:35.258Z,100313.84
2019-04-21T13:01:03.070Z,100306.94
2019-04-21T13:03:30.372Z,100288.45
2019-04-21T13:05:58.029Z,100298.77
2019-04-21T13:08:25.036Z,100299.16
2019-04-21T13:10:51.972Z,100299.64
2019-04-21T13:13:19.815Z,100296.06
2019-04-21T13:15:47.317Z,100292.55
2019-04-21T13:18:14.475Z,100297.52
2019-04-21T13:20:42.176Z,100291.92
2019-04-21T13:23:10.063Z,100291.67
2019-04-21T13:25:38.055Z,100283.45
2019-04-21T13:28:05.060Z,100284.13
2019-04-21T13:30:32.598Z,100278.93
2019-04-21T13:32:59.179Z,100270.91
2019-04-21T13:35:26.755Z,100269.89
2019-04-21T13:37:54.390Z,100264.77
2019-04-21T13:40:56.961Z,100265.17
2019-04-21T13:43:11.972Z,100260.82
2019-04-21T13:45:39.469Z,100254.15
2019-04-21T13:48:06.547Z,100253.09
2019-04-21T13:50:33.273Z,100259.45
2019-04-21T13:53:00.662Z,100255.53
2019-04-21T13:55:27.575Z,100243.75
2019-04-21T13:57:54.746Z,100236.10
2019-04-21T14:00:21.639Z,100241.06
2019-04-21T14:02:52.429Z,100232.28
2019-04-21T14:05:20.307Z,100232.62
2019-04-21T14:07:48.058Z,100222.59
2019-04-21T14:10:16.069Z,100231.62
2019-04-21T14:12:44.494Z,100225.13
2019-04-21T14:15:12.501Z,100226.92
2019-04-21T14:17:39.212Z,100220.98
2019-04-21T14:20:09.034Z,100229.28
2019-04-21T14:22:36.028Z,100208.78
2019-04-21T14:25:07.976Z,100205.02
2019-04-21T14:27:36.274Z,100211.75
2019-04-21T14:30:08.647Z,100199.61
2019-04-21T14:32:35.987Z,100198.00
2019-04-21T14:35:06.864Z,100196.51
2019-04-21T14:37:34.905Z,100192.67
2019-04-21T14:40:07.401Z,100187.80
2019-04-21T14:42:30.002Z,100185.03
2019-04-21T14:44:56.844Z,100193.13
2019-04-21T14:47:42.206Z,100188.71
2019-04-21T14:50:28.284Z,100178.82
2019-04-21T14:53:16.065Z,100182.50
2019-04-21T14:55:45.790Z,100175.05
2019-04-21T14:58:12.871Z,100179.55
2019-04-21T15:00:53.851Z,100188.26
2019-04-21T15:03:21.639Z,100172.52
2019-04-21T15:05:49.370Z,100178.27
2019-04-21T15:08:17.013Z,100179.83
2019-04-21T15:10:43.574Z,100173.88
2019-04-21T15:13:10.043Z,100169.73
2019-04-21T15:15:38.054Z,100163.28
2019-04-21T15:18:05.267Z,100168.94
2019-04-21T15:20:32.024Z,100162.36
2019-04-21T15:22:58.426Z,100159.70
2019-04-21T15:25:26.042Z,100156.34
2019-04-21T15:27:52.853Z,100151.48
2019-04-21T15:30:20.740Z,100159.44
2019-04-21T15:32:48.531Z,100151.31
2019-04-21T15:35:15.283Z,100147.16
2019-04-21T15:37:42.125Z,100153.16
2019-04-21T15:40:21.091Z,100150.27
2019-04-21T15:42:38.925Z,100152.81
2019-04-21T15:45:06.414Z,100148.08
2019-04-21T15:47:33.786Z,100141.84
2019-04-21T15:50:05.316Z,100136.92
2019-04-21T15:52:29.926Z,100134.17
2019-04-21T15:54:58.917Z,100142.39
2019-04-21T15:57:30.150Z,100135.05
2019-04-21T16:00:04.652Z,100126.16
2019-04-21T16:02:40.411Z,100132.67
2019-04-21T16:05:10.958Z,100127.37
2019-04-21T16:07:44.435Z,100128.01
2019-04-21T16:10:28.303Z,100128.52
2019-04-21T16:12:43.551Z,100109.17
2019-04-21T16:15:12.387Z,100114.95
2019-04-21T16:17:39.365Z,100115.55
2019-04-21T16:20:08.020Z,100111.91
2019-04-21T16:22:38.877Z,100104.58
2019-04-21T16:25:06.274Z,100103.12
2019-04-21T16:27:33.254Z,100100.20
2019-04-21T16:30:00.082Z,100100.66
2019-04-21T16:32:27.893Z,100101.67
2019-04-21T16:35:02.773Z,100098.91
2019-04-21T16:37:23.559Z,100104.23
2019-04-21T16:39:51.570Z,100092.91
2019-04-21T16:42:18.344Z,100092.18
2019-04-21T16:44:45.109Z,100083.25
2019-04-21T16:47:11.774Z,100085.20
2019-04-21T16:49:38.295Z,100087.16
2019-04-21T16:52:14.080Z,100085.63
2019-04-21T16:54:44.001Z,100081.75
2019-04-21T16:57:12.374Z,100076.52
2019-04-21T16:59:42.201Z,100075.36
2019-04-21T17:02:10.304Z,100081.03
2019-04-21T17:04:38.230Z,100074.94
2019-04-21T17:07:05.154Z,100067.97
2019-04-21T17:09:32.656Z,100066.86
2019-04-21T17:12:03.275Z,100066.21
2019-04-21T17:14:48.117Z,100060.95
2019-04-21T17:17:23.109Z,100059.91
2019-04-21T17:19:29.927Z,100065.16
2019-04-21T17:21:53.177Z,100061.37
2019-04-21T17:24:20.164Z,100047.83
2019-04-21T17:26:48.200Z,100046.36
2019-04-21T17:29:16.867Z,100049.88
2019-04-21T17:31:45.699Z,100043.30
2019-04-21T17:34:17.962Z,100036.43
2019-04-21T17:36:41.153Z,100040.04
2019-04-21T17:39:08.979Z,100041.92
2019-04-21T17:41:42.525Z,100037.84
2019-04-21T17:44:04.471Z,100031.03
2019-04-21T17:46:40.793Z,100034.56
2019-04-21T17:48:59.254Z,100038.72
2019-04-21T17:51:27.687Z,100032.47
2019-04-21T17:54:17.521Z,100040.70
2019-04-21T17:57:19.969Z,100031.94
2019-04-21T17:59:41.179Z,100032.48
2019-04-21T18:02:00.735Z,100038.12
2019-04-21T18:04:28.529Z,100032.95
2019-04-21T18:07:15.129Z,100044.03
2019-04-21T18:09:56.469Z,100041.89
2019-04-21T18:12:19.862Z,100039.14
2019-04-21T18:14:30.618Z,100040.50
2019-04-21T18:16:58.286Z,100043.34
2019-04-21T18:19:28.927Z,100039.30
2019-04-21T18:21:59.446Z,100042.34
2019-04-21T18:24:32.350Z,100045.98
2019-04-21T18:26:56.565Z,100045.40
2019-04-21T18:29:19.290Z,100037.66
2019-04-21T18:31:50.236Z,100040.70
2019-04-21T18:34:44.226Z,100038.59
2019-04-21T18:37:18.584Z,100036.16
2019-04-21T18:39:49.499Z,100040.44
2019-04-21T18:42:26.248Z,100036.97
2019-04-21T18:45:34.518Z,100041.65
2019-04-21T18:47:54.965Z,100042.03
2019-04-21T18:50:31.638Z,100035.58
2019-04-21T18:53:06.081Z,100041.05
2019-04-21T18:55:32.266Z,100041.69
2019-04-21T18:57:56.319Z,100043.97
2019-04-21T19:00:30.729Z,100043.48
2019-04-21T19:02:55.077Z,100040.28
2019-04-21T19:05:24.143Z,100037.74
2019-04-21T19:08:03.026Z,100039.02
2019-04-21T19:10:40.706Z,100049.55
2019-04-21T19:15:29.960Z,100054.41
2019-04-21T19:18:27.863Z,100052.23
2019-04-21T19:20:32.911Z,100047.98
2019-04-21T19:22:52.336Z,100049.52
2019-04-21T19:25:25.425Z,100047.00
2019-04-21T19:27:54.731Z,100049.29
2019-04-21T19:32:51.477Z,100043.56
2019-04-21T19:35:07.918Z,100044.44
2019-04-21T19:37:45.222Z,100039.14
2019-04-21T19:40:26.631Z,100039.34
2019-04-21T19:42:45.564Z,100037.95
2019-04-21T19:45:22.509Z,100034.05
2019-04-21T19:47:56.535Z,100037.66
2019-04-21T19:50:25.576Z,99982.20
2019-04-21T19:52:44.025Z,100029.80
2019-04-21T19:55:06.500Z,100046.41
2019-04-21T19:57:34.642Z,100037.63
2019-04-21T20:00:05.526Z,100037.06
2019-04-21T20:02:30.263Z,100038.95
2019-04-21T20:05:03.110Z,100029.66
2019-04-21T20:07:41.527Z,100036.96
2019-04-21T20:10:14.423Z,100030.87
2019-04-21T20:12:40.119Z,100035.50
2019-04-21T20:15:20.330Z,100030.33
2019-04-21T20:17:36.430Z,100028.59
2019-04-21T20:19:47.875Z,100033.13
2019-04-21T20:22:14.707Z,100024.36
2019-04-21T20:24:51.362Z,100025.85
2019-04-21T20:27:17.590Z,100025.31
2019-04-21T20:29:56.184Z,100023.45
2019-04-21T20:34:57.720Z,100029.45
2019-04-21T20:37:21.306Z,100032.25
2019-04-21T20:39:45.201Z,100025.86
2019-04-21T20:42:18.084Z,100021.68
2019-04-21T20:44:54.551Z,100025.58
2019-04-21T20:47:07.570Z,100027.32
2019-04-21T20:49:36.557Z,100029.22
2019-04-21T20:52:29.421Z,100031.92
2019-04-21T20:54:44.022Z,100040.61
2019-04-21T20:57:21.908Z,100034.02
2019-04-21T20:59:32.798Z,100040.31
2019-04-21T21:02:05.487Z,100031.02
2019-04-21T21:04:28.057Z,100035.16
2019-04-21T21:07:06.193Z,100037.85
2019-04-21T21:09:28.264Z,100028.92
2019-04-21T21:12:11.315Z,100036.17
2019-04-21T21:14:28.050Z,100038.14
2019-04-21T21:17:01.364Z,100040.30
2019-04-21T21:19:31.515Z,100042.81
2019-04-21T21:21:48.584Z,100047.89
2019-04-21T21:24:21.838Z,100039.91
2019-04-21T21:26:54.964Z,100034.44
2019-04-21T21:29:21.372Z,100041.09
2019-04-21T21:31:50.539Z,100040.42
2019-04-21T21:34:25.998Z,100037.55
2019-04-21T21:36:49.477Z,100039.83
2019-04-21T21:39:15.929Z,100042.22
2019-04-21T21:41:36.421Z,100041.91
2019-04-21T21:44:05.940Z,100037.52
2019-04-21T21:46:43.060Z,100034.31
2019-04-21T21:49:05.079Z,100036.67
2019-04-21T21:51:39.321Z,100034.46
2019-04-21T21:53:52.702Z,100029.73
2019-04-21T21:56:20.588Z,100028.48
2019-04-21T21:58:48.400Z,100027.64
2019-04-21T22:01:20.851Z,100024.77
2019-04-21T22:03:48.521Z,100024.91
2019-04-21T22:06:24.028Z,100022.67
2019-04-21T22:09:18.620Z,100020.39
2019-04-21T22:11:48.656Z,100018.27
2019-04-21T22:14:25.949Z,100018.74
2019-04-21T22:17:06.190Z,100019.33
2019-04-21T22:23:11.354Z,100012.64
2019-04-21T22:25:36.793Z,100002.28
2019-04-21T22:28:02.065Z,100008.64
2019-04-21T22:30:37.076Z,100014.61
2019-04-21T22:33:04.751Z,100008.89
2019-04-21T22:35:34.524Z,100005.82
2019-04-21T22:38:13.992Z,100000.58
2019-04-21T22:40:41.594Z,100002.84
2019-04-21T22:43:04.694Z,100001.91
2019-04-21T22:45:23.286Z,100003.56
2019-04-21T22:47:49.623Z,100002.97
2019-04-21T22:50:26.699Z,100003.69
2019-04-21T22:52:58.463Z,100004.06
2019-04-21T22:55:24.325Z,100002.87
2019-04-21T22:57:53.273Z,100007.06
2019-04-21T23:00:20.846Z,100014.80
2019-04-21T23:02:53.955Z,100013.97
2019-04-21T23:05:22.279Z,100013.27
2019-04-21T23:07:54.604Z,100015.43
2019-04-21T23:10:17.232Z,100009.78
2019-04-21T23:12:44.006Z,100009.19
2019-04-21T23:15:17.286Z,100007.05
2019-04-21T23:18:04.279Z,100004.64
2019-04-21T23:20:32.835Z,100009.66
2019-04-21T23:23:00.696Z,100005.84
2019-04-21T23:25:22.342Z,100009.55
2019-04-21T23:27:55.471Z,100007.41
2019-04-21T23:30:34.129Z,100007.51
2019-04-21T23:32:46.824Z,100008.92
2019-04-21T23:35:17.249Z,100000.84
2019-04-21T23:37:40.885Z,100007.39
2019-04-21T23:40:11.962Z,99998.31
2019-04-21T23:42:36.558Z,100002.06
2019-04-21T23:45:01.491Z,100002.54
2019-04-21T23:47:42.079Z,99995.95
2019-04-21T23:50:03.701Z,99999.20
2019-04-21T23:52:25.599Z,99993.60
2019-04-21T23:54:53.523Z,99995.50
2019-04-21T23:57:28.531Z,99988.20
2019-04-21T23:59:54.139Z,99984.63
